createdAt,value
2022-08-16T00:02:59.031Z,64.88
2022-08-16T00:06:02.588Z,67.10
2022-08-16T00:09:07.761Z,67.83
2022-08-16T00:12:18.078Z,68.07
2022-08-16T00:15:25.284Z,66.32
2022-08-16T00:18:48.636Z,66.80
2022-08-16T00:21:55.248Z,65.28
2022-08-16T00:25:03.253Z,65.51
2022-08-16T00:28:07.266Z,66.40
2022-08-16T00:31:11.539Z,64.80
2022-08-16T00:34:18.125Z,64.97
2022-08-16T00:37:24.601Z,64.17
2022-08-16T00:40:43.739Z,65.88
2022-08-16T00:43:53.029Z,66.40
2022-08-16T00:47:06.450Z,67.46
2022-08-16T00:50:11.765Z,66.45
2022-08-16T00:53:18.756Z,66.14
2022-08-16T00:56:58.035Z,64.86
2022-08-16T00:59:59.089Z,64.25
2022-08-16T01:03:12.598Z,63.79
2022-08-16T01:06:39.679Z,63.67
2022-08-16T01:09:43.778Z,63.31
2022-08-16T01:12:49.194Z,64.19
2022-08-16T01:16:03.690Z,63.59
2022-08-16T01:19:19.665Z,62.96
2022-08-16T01:22:47.141Z,63.19
2022-08-16T01:26:00.185Z,63.53
2022-08-16T01:29:35.715Z,62.90
2022-08-16T01:33:02.159Z,64.83
2022-08-16T01:36:15.387Z,64.13
2022-08-16T01:39:21.783Z,64.67
2022-08-16T01:42:28.395Z,65.33
2022-08-16T01:45:40.852Z,64.98
2022-08-16T01:48:48.868Z,65.31
2022-08-16T01:51:57.169Z,66.00
2022-08-16T01:55:27.331Z,65.19
2022-08-16T01:58:40.872Z,67.75
2022-08-16T02:01:59.993Z,64.81
2022-08-16T02:05:06.662Z,65.37
2022-08-16T02:08:10.749Z,65.20
2022-08-16T02:11:48.545Z,65.19
2022-08-16T02:14:59.436Z,64.42
2022-08-16T02:18:04.493Z,65.90
2022-08-16T02:21:13.051Z,67.09
2022-08-16T02:24:31.588Z,65.63
2022-08-16T02:27:36.058Z,65.96
2022-08-16T02:30:44.290Z,65.43
2022-08-16T02:33:53.530Z,67.43
2022-08-16T02:37:05.499Z,66.37
2022-08-16T02:40:12.544Z,67.29
2022-08-16T02:43:20.707Z,66.52
2022-08-16T02:46:33.610Z,66.73
2022-08-16T02:50:28.006Z,65.99
2022-08-16T02:53:02.909Z,65.47
2022-08-16T02:56:11.174Z,65.24
2022-08-16T02:59:15.007Z,65.89
2022-08-16T03:02:21.132Z,64.74
2022-08-16T03:05:36.688Z,64.83
2022-08-16T03:08:50.323Z,64.98
2022-08-16T03:11:58.646Z,64.88
2022-08-16T03:15:05.076Z,65.56
2022-08-16T03:18:18.753Z,64.63
2022-08-16T03:21:38.288Z,65.48
2022-08-16T03:24:44.694Z,65.81
2022-08-16T03:27:48.710Z,67.08
2022-08-16T03:30:55.413Z,66.57
2022-08-16T03:34:01.257Z,66.25
2022-08-16T03:37:05.740Z,68.49
2022-08-16T03:40:31.785Z,67.47
2022-08-16T03:43:51.379Z,66.35
2022-08-16T03:46:58.264Z,66.07
2022-08-16T03:50:26.146Z,65.61
2022-08-16T03:53:37.846Z,65.28
2022-08-16T03:56:57.068Z,65.17
2022-08-16T04:00:20.595Z,64.19
2022-08-16T04:03:38.975Z,62.92
2022-08-16T04:06:46.986Z,62.49
2022-08-16T04:09:50.908Z,61.51
2022-08-16T04:13:00.666Z,60.95
2022-08-16T04:16:26.522Z,61.68
2022-08-16T04:19:37.898Z,62.26
2022-08-16T04:22:51.959Z,61.71
2022-08-16T04:25:55.425Z,61.84
2022-08-16T04:29:16.761Z,60.73
2022-08-16T04:32:23.331Z,61.55
2022-08-16T04:35:34.167Z,61.19
2022-08-16T04:38:39.382Z,60.42
2022-08-16T04:41:45.439Z,59.50
2022-08-16T04:44:54.668Z,59.79
2022-08-16T04:48:02.487Z,59.05
2022-08-16T04:51:13.420Z,60.23
2022-08-16T04:54:23.494Z,58.28
2022-08-16T04:57:30.195Z,58.31
2022-08-16T05:00:36.136Z,58.77
2022-08-16T05:04:00.468Z,57.33
2022-08-16T05:07:10.942Z,57.05
2022-08-16T05:10:36.953Z,57.15
2022-08-16T05:13:45.850Z,56.05
2022-08-16T05:16:55.064Z,57.64
2022-08-16T05:19:59.280Z,56.63
2022-08-16T05:23:15.044Z,56.25
2022-08-16T05:26:21.651Z,57.93
2022-08-16T05:29:59.435Z,57.63
2022-08-16T05:32:53.284Z,57.11
2022-08-16T05:35:59.040Z,56.96
2022-08-16T05:39:10.190Z,55.96
2022-08-16T05:42:16.305Z,55.49
2022-08-16T05:45:23.869Z,55.40
2022-08-16T05:48:31.845Z,55.34
2022-08-16T05:51:41.910Z,55.20
2022-08-16T05:55:01.130Z,54.65
2022-08-16T05:58:31.575Z,53.80
2022-08-16T06:01:37.845Z,53.22
2022-08-16T06:04:45.149Z,51.70
2022-08-16T06:07:58.216Z,51.71
2022-08-16T06:11:13.264Z,49.82
2022-08-16T06:14:21.268Z,49.42
2022-08-16T06:17:24.708Z,48.66
2022-08-16T06:20:55.909Z,46.89
2022-08-16T06:24:01.264Z,46.63
2022-08-16T06:27:08.532Z,47.37
2022-08-16T06:30:19.857Z,46.99
2022-08-16T06:33:25.452Z,46.69
2022-08-16T06:36:29.386Z,45.77
2022-08-16T06:39:49.337Z,45.67
2022-08-16T06:43:13.492Z,45.10
2022-08-16T06:46:34.262Z,45.08
2022-08-16T06:49:52.849Z,44.98
2022-08-16T06:53:06.825Z,44.25
2022-08-16T06:56:22.972Z,43.04
2022-08-16T06:59:58.110Z,42.73
2022-08-16T07:03:27.651Z,42.22
2022-08-16T07:06:34.062Z,42.42
2022-08-16T07:09:44.660Z,41.30
2022-08-16T07:13:03.407Z,40.98
2022-08-16T07:16:16.831Z,41.45
2022-08-16T07:19:33.663Z,40.18
2022-08-16T07:22:53.145Z,40.34
2022-08-16T07:26:24.928Z,39.81
2022-08-16T07:29:32.107Z,39.45
2022-08-16T07:32:37.080Z,38.33
2022-08-16T07:35:49.578Z,39.17
2022-08-16T07:38:55.528Z,38.77
2022-08-16T07:41:59.754Z,38.64
2022-08-16T07:45:03.421Z,38.08
2022-08-16T07:48:14.958Z,37.94
2022-08-16T07:51:24.379Z,38.22
2022-08-16T07:54:37.862Z,36.97
2022-08-16T07:58:00.587Z,36.96
2022-08-16T08:01:10.764Z,36.44
2022-08-16T08:04:26.730Z,36.66
2022-08-16T08:07:38.782Z,36.35
2022-08-16T08:10:49.160Z,36.94
2022-08-16T08:13:54.441Z,35.20
2022-08-16T08:17:01.324Z,36.16
2022-08-16T08:20:08.859Z,35.90
2022-08-16T08:23:15.823Z,34.84
2022-08-16T08:26:22.299Z,33.79
2022-08-16T08:29:37.086Z,33.34
2022-08-16T08:33:01.822Z,32.92
2022-08-16T08:36:21.793Z,32.38
2022-08-16T08:39:30.444Z,33.13
2022-08-16T08:42:36.633Z,33.18
2022-08-16T08:45:52.773Z,33.09
2022-08-16T08:48:59.210Z,33.62
2022-08-16T08:52:11.629Z,33.87
2022-08-16T08:55:36.663Z,33.78
2022-08-16T08:58:40.121Z,32.85
2022-08-16T09:02:30.965Z,32.92
2022-08-16T09:05:37.216Z,32.67
2022-08-16T09:08:47.434Z,32.91
2022-08-16T09:12:06.602Z,32.23
2022-08-16T09:15:40.079Z,32.54
2022-08-16T09:18:43.900Z,33.12
2022-08-16T09:21:55.969Z,32.51
2022-08-16T09:25:11.239Z,32.20
2022-08-16T09:29:13.576Z,31.32
2022-08-16T09:31:53.633Z,31.91
2022-08-16T09:34:58.332Z,32.42
2022-08-16T09:38:01.961Z,32.32
2022-08-16T09:41:14.868Z,32.13
2022-08-16T09:45:10.597Z,31.99
2022-08-16T09:47:56.784Z,31.66
2022-08-16T09:51:01.747Z,30.72
2022-08-16T09:54:05.554Z,30.39
2022-08-16T09:57:12.204Z,31.00
2022-08-16T10:00:42.371Z,30.56
2022-08-16T10:04:01.579Z,29.97
2022-08-16T10:07:15.035Z,30.19
2022-08-16T10:10:31.077Z,29.98
2022-08-16T10:13:34.743Z,28.85
2022-08-16T10:16:39.476Z,29.05
2022-08-16T10:19:43.463Z,28.37
2022-08-16T10:22:47.169Z,28.57
2022-08-16T10:27:18.693Z,28.94
2022-08-16T10:29:20.126Z,29.15
2022-08-16T10:32:25.857Z,28.50
2022-08-16T10:35:34.305Z,28.14
2022-08-16T10:38:52.044Z,28.48
2022-08-16T10:41:55.622Z,27.89
2022-08-16T10:44:59.042Z,28.23
2022-08-16T10:48:06.480Z,28.32
2022-08-16T10:51:34.403Z,28.36
2022-08-16T10:54:59.424Z,28.73
2022-08-16T10:58:11.649Z,28.10
2022-08-16T11:01:40.142Z,28.00
2022-08-16T11:08:07.023Z,28.46
2022-08-16T11:11:19.154Z,27.65
2022-08-16T11:14:24.413Z,27.91
2022-08-16T11:17:27.810Z,27.64
2022-08-16T11:20:42.266Z,27.90
2022-08-16T11:23:57.845Z,28.18
2022-08-16T11:30:37.681Z,27.68
2022-08-16T11:33:54.995Z,27.29
2022-08-16T11:37:01.453Z,27.12
2022-08-16T11:40:08.182Z,27.17
2022-08-16T11:43:16.787Z,27.26
2022-08-16T11:46:44.189Z,27.81
2022-08-16T11:49:44.049Z,26.44
2022-08-16T11:52:48.715Z,26.12
2022-08-16T11:55:54.555Z,26.01
2022-08-16T11:58:58.484Z,25.17
2022-08-16T12:02:04.407Z,25.18
2022-08-16T12:05:27.305Z,25.62
2022-08-16T12:08:33.203Z,25.42
2022-08-16T12:11:36.690Z,25.93
2022-08-16T12:14:41.225Z,25.17
2022-08-16T12:17:44.937Z,25.37
2022-08-16T12:20:48.429Z,25.70
2022-08-16T12:23:53.655Z,25.55
2022-08-16T12:26:57.572Z,25.40
2022-08-16T12:30:04.610Z,25.38
2022-08-16T12:33:11.947Z,24.63
2022-08-16T12:36:17.763Z,25.49
2022-08-16T12:39:22.551Z,25.87
2022-08-16T12:42:35.217Z,25.35
2022-08-16T12:45:44.707Z,25.62
2022-08-16T12:48:59.378Z,25.64
2022-08-16T12:52:02.813Z,25.45
2022-08-16T12:55:08.724Z,25.54
2022-08-16T12:58:14.165Z,25.60
2022-08-16T13:01:37.291Z,26.24
2022-08-16T13:04:40.643Z,26.37
2022-08-16T13:07:51.844Z,25.95
2022-08-16T13:10:58.308Z,26.44
2022-08-16T13:14:01.688Z,26.37
2022-08-16T13:17:17.072Z,25.85
2022-08-16T13:20:28.994Z,25.60
2022-08-16T13:23:33.220Z,25.99
2022-08-16T13:26:38.051Z,26.78
2022-08-16T13:29:43.887Z,26.94
2022-08-16T13:32:47.836Z,27.58
2022-08-16T13:35:57.670Z,27.88
2022-08-16T13:39:07.151Z,26.73
2022-08-16T13:42:13.369Z,26.80
2022-08-16T13:45:19.439Z,27.06
2022-08-16T13:48:24.812Z,27.50
2022-08-16T13:51:30.692Z,27.30
2022-08-16T13:54:34.336Z,27.34
2022-08-16T13:58:34.216Z,26.92
2022-08-16T14:01:03.377Z,27.37
2022-08-16T14:04:06.976Z,27.07
2022-08-16T14:07:24.580Z,26.01
2022-08-16T14:10:28.266Z,25.66
2022-08-16T14:13:33.140Z,26.86
2022-08-16T14:16:37.523Z,27.87
2022-08-16T14:19:45.017Z,26.90
2022-08-16T14:22:52.371Z,27.14
2022-08-16T14:25:58.388Z,26.75
2022-08-16T14:29:03.650Z,26.96
2022-08-16T14:32:09.312Z,27.54
2022-08-16T14:35:21.138Z,28.04
2022-08-16T14:38:24.433Z,28.29
2022-08-16T14:41:33.179Z,28.60
2022-08-16T14:44:39.152Z,28.44
2022-08-16T14:47:43.157Z,28.86
2022-08-16T14:50:49.566Z,28.79
2022-08-16T14:53:53.388Z,28.56
2022-08-16T14:56:57.586Z,27.94
2022-08-16T15:00:05.967Z,27.27
2022-08-16T15:03:11.205Z,27.16
2022-08-16T15:06:14.792Z,27.12
2022-08-16T15:09:20.350Z,27.16
2022-08-16T15:12:31.138Z,27.38
2022-08-16T15:15:39.873Z,27.10
2022-08-16T15:18:46.716Z,27.03
2022-08-16T15:21:53.814Z,26.95
2022-08-16T15:25:00.035Z,25.52
2022-08-16T15:28:07.017Z,24.82
2022-08-16T15:31:29.005Z,25.14
2022-08-16T15:34:32.973Z,24.10
2022-08-16T15:37:53.360Z,25.04
2022-08-16T15:40:59.140Z,24.29
2022-08-16T15:44:05.172Z,23.93
2022-08-16T15:47:16.541Z,24.21
2022-08-16T15:50:22.014Z,24.11
2022-08-16T15:53:27.425Z,24.79
2022-08-16T15:56:35.610Z,24.50
2022-08-16T15:59:49.150Z,24.95
2022-08-16T16:03:04.544Z,25.73
2022-08-16T16:06:12.286Z,26.20
2022-08-16T16:09:18.000Z,27.02
2022-08-16T16:12:53.508Z,27.08
2022-08-16T16:15:56.740Z,27.49
2022-08-16T16:19:03.132Z,27.48
2022-08-16T16:22:06.682Z,28.28
2022-08-16T16:25:10.953Z,28.16
2022-08-16T16:29:08.272Z,28.37
2022-08-16T16:31:41.443Z,28.46
2022-08-16T16:34:48.969Z,28.39
2022-08-16T16:37:56.615Z,28.66
2022-08-16T16:41:02.245Z,28.89
2022-08-16T16:44:06.193Z,28.89
2022-08-16T16:47:10.296Z,29.55
2022-08-16T16:50:16.554Z,29.74
2022-08-16T16:53:23.172Z,29.95
2022-08-16T16:56:32.330Z,30.58
2022-08-16T16:59:37.708Z,31.24
2022-08-16T17:02:49.664Z,31.32
2022-08-16T17:06:08.732Z,32.10
2022-08-16T17:09:14.021Z,32.84
2022-08-16T17:12:24.657Z,33.38
2022-08-16T17:15:36.163Z,33.83
2022-08-16T17:19:17.516Z,33.76
2022-08-16T17:22:05.443Z,34.40
2022-08-16T17:25:17.786Z,33.84
2022-08-16T17:28:58.811Z,33.50
2022-08-16T17:31:44.441Z,33.01
2022-08-16T17:34:51.537Z,33.29
2022-08-16T17:37:58.079Z,32.96
2022-08-16T17:41:02.773Z,33.52
2022-08-16T17:44:08.948Z,33.87
2022-08-16T17:47:12.814Z,33.50
2022-08-16T17:50:16.419Z,33.24
2022-08-16T17:53:21.881Z,33.36
2022-08-16T17:56:25.516Z,33.21
2022-08-16T17:59:29.006Z,33.21
2022-08-16T18:02:43.776Z,33.62
2022-08-16T18:05:49.165Z,33.94
2022-08-16T18:09:01.679Z,33.71
2022-08-16T18:12:44.528Z,33.64
2022-08-16T18:15:37.258Z,34.10
2022-08-16T18:18:40.605Z,34.55
2022-08-16T18:22:01.682Z,34.01
2022-08-16T18:25:07.599Z,34.95
2022-08-16T18:28:10.986Z,34.62
2022-08-16T18:31:14.387Z,35.31
2022-08-16T18:34:18.086Z,35.17
2022-08-16T18:37:27.672Z,35.80
2022-08-16T18:40:36.706Z,35.85
2022-08-16T18:44:22.946Z,35.97
2022-08-16T18:47:03.465Z,36.28
2022-08-16T18:50:07.779Z,36.55
2022-08-16T18:53:14.350Z,36.46
2022-08-16T18:56:19.109Z,36.37
2022-08-16T18:59:22.661Z,37.00
2022-08-16T19:02:56.759Z,37.20
2022-08-16T19:05:52.020Z,37.05
2022-08-16T19:08:55.413Z,36.85
2022-08-16T19:12:05.054Z,37.04
2022-08-16T19:15:12.029Z,36.96
2022-08-16T19:18:16.974Z,37.40
2022-08-16T19:21:20.304Z,37.12
2022-08-16T19:24:23.660Z,37.26
2022-08-16T19:27:34.082Z,36.79
2022-08-16T19:30:39.774Z,37.04
2022-08-16T19:33:53.971Z,37.31
2022-08-16T19:36:58.092Z,37.55
2022-08-16T19:40:01.910Z,38.35
2022-08-16T19:43:09.081Z,37.90
2022-08-16T19:46:12.438Z,38.92
2022-08-16T19:49:16.547Z,39.14
2022-08-16T19:52:22.337Z,39.32
2022-08-16T19:55:25.731Z,39.64
2022-08-16T19:58:30.868Z,39.80
2022-08-16T20:01:37.363Z,39.97
2022-08-16T20:04:43.780Z,40.55
2022-08-16T20:07:47.195Z,41.12
2022-08-16T20:10:51.327Z,41.08
2022-08-16T20:13:56.036Z,40.46
2022-08-16T20:17:01.144Z,41.07
2022-08-16T20:20:05.815Z,41.08
2022-08-16T20:23:24.017Z,41.59
2022-08-16T20:26:29.626Z,41.39
2022-08-16T20:29:34.644Z,41.51
2022-08-16T20:32:38.394Z,41.90
2022-08-16T20:35:42.999Z,42.29
2022-08-16T20:38:47.831Z,41.59
2022-08-16T20:41:51.693Z,41.70
2022-08-16T20:44:56.533Z,41.41
2022-08-16T20:48:00.066Z,42.31
2022-08-16T20:51:04.238Z,42.64
2022-08-16T20:54:07.596Z,42.72
2022-08-16T20:57:10.954Z,43.25
2022-08-16T21:00:17.182Z,43.31
2022-08-16T21:03:21.147Z,43.46
2022-08-16T21:06:25.721Z,43.87
2022-08-16T21:09:33.683Z,43.95
2022-08-16T21:12:37.987Z,43.53
2022-08-16T21:15:42.802Z,43.55
2022-08-16T21:18:46.889Z,43.92
2022-08-16T21:21:50.806Z,43.91
2022-08-16T21:24:54.686Z,44.25
2022-08-16T21:28:40.644Z,43.93
2022-08-16T21:31:23.752Z,43.84
2022-08-16T21:34:27.054Z,44.50
2022-08-16T21:37:30.429Z,44.33
2022-08-16T21:40:36.267Z,44.92
2022-08-16T21:43:39.646Z,44.46
2022-08-16T21:46:44.655Z,45.12
2022-08-16T21:49:47.943Z,45.13
2022-08-16T21:52:51.733Z,44.64
2022-08-16T21:55:57.111Z,44.45
2022-08-16T21:59:00.563Z,44.86
2022-08-16T22:02:05.709Z,44.54
2022-08-16T22:05:09.942Z,44.19
2022-08-16T22:08:14.024Z,44.18
2022-08-16T22:11:17.347Z,44.58
2022-08-16T22:14:20.693Z,44.83
2022-08-16T22:17:26.072Z,44.46
2022-08-16T22:20:30.521Z,44.62
2022-08-16T22:23:34.587Z,45.03
2022-08-16T22:26:42.991Z,44.42
2022-08-16T22:29:46.842Z,43.70
2022-08-16T22:32:51.943Z,43.70
2022-08-16T22:35:57.398Z,43.52
2022-08-16T22:39:03.618Z,44.29
2022-08-16T22:42:09.840Z,44.10
2022-08-16T22:45:13.941Z,44.04
2022-08-16T22:48:18.921Z,44.61
2022-08-16T22:51:23.832Z,44.24
2022-08-16T22:54:41.348Z,44.68
2022-08-16T22:57:50.492Z,44.74
2022-08-16T23:00:53.876Z,45.06
2022-08-16T23:03:58.916Z,45.47
2022-08-16T23:07:02.448Z,45.67
2022-08-16T23:10:08.380Z,45.43
2022-08-16T23:13:12.146Z,45.61
2022-08-16T23:16:15.860Z,45.20
2022-08-16T23:19:20.614Z,45.79
2022-08-16T23:22:24.646Z,45.82
2022-08-16T23:25:31.841Z,46.32
2022-08-16T23:28:35.160Z,46.32
2022-08-16T23:31:38.594Z,46.52
2022-08-16T23:34:43.435Z,45.87
2022-08-16T23:37:47.187Z,46.25
2022-08-16T23:40:51.452Z,46.26
2022-08-16T23:43:54.855Z,46.78
2022-08-16T23:46:58.239Z,47.52
2022-08-16T23:50:03.931Z,47.72
2022-08-16T23:53:10.307Z,48.55
2022-08-16T23:56:15.540Z,48.21
2022-08-16T23:59:18.876Z,48.51
